Current Conditions - Area Ports

 

CYWH - Victoria Harbour, British Columbia, Canada
Distance from station: WSW 10km
Updated: 01/18/2019 8:00pm
Light rain, Overcast
Light rain, Overcast
 Wind from E
Wind: E 35 km/h, Gust: 56 km/h
Temperature: 8°C
Wind Chill: 3°C
Dew Point: 5°C
Humidity: 82%
Barometer: 1007.5 hPa
Summary: Light rain
Clouds: Overcast
Visibility: 16 km
Cloud details: Few Clouds 366 m
Overcast 1524 m
2019/01/19 04:00 CYWH 190400Z 10019G30KT 10SM -RA FEW012 OVC050 08/05 A2975 RMK SC1SC7 SLP075
KFHR - Friday Harbor, Washington, USA
Distance from station: ENE 19km
Updated: 01/18/2019 8:53pm
Light rain, Overcast
Light rain, Overcast
 Wind from E
Wind: E 28 km/h, Gust: 37 km/h
Temperature: 8°C
Wind Chill: 4°C
Dew Point: 6°C
Humidity: 87%
Barometer: 1007.5 hPa
Summary: Light rain
Clouds: Overcast
Visibility: 14 km
Cloud details: Partly cloudy 488 m
Mostly cloudy 1158 m
Overcast 2134 m
2019/01/19 04:53 KFHR 190453Z AUTO 10015G20KT 9SM -RA SCT016 BKN038 OVC070 08/06 A2975 RMK AO2 PRESFR SLP074 P0000 T00780056
 
KORS - Eastsound/Orcas, Washington, USA
Distance from station: NE 38km
Updated: 01/18/2019 8:35pm
Rain, Overcast
Rain, Overcast
 Wind from varies
Wind: varies 9 km/h, Gust: 31 km/h
Temperature: 9°C
Wind Chill: 7°C
Dew Point: 5°C
Humidity: 76%
Barometer: 1008.1 hPa
Summary: Rain
Clouds: Overcast
Visibility: 5 km
Cloud details: Few Clouds 823 m
Mostly cloudy 975 m
Overcast 1341 m
2019/01/19 04:35 KORS 190435Z AUTO VRB05G17KT 3SM RA FEW027 BKN032 OVC044 09/05 A2977 RMK AO2
KNUW - Whidbey Is. Nas, Washington, USA
Distance from station: ESE 47km
Updated: 01/18/2019 7:56pm
Light rain, Overcast
Light rain, Overcast
 Wind from ESE
Wind: ESE 28 km/h
Temperature: 9°C
Wind Chill: 6°C
Dew Point: 6°C
Humidity: 82%
Barometer: 1010.2 hPa
Summary: Light rain
Clouds: Overcast
Visibility: 16 km
Cloud details: Partly cloudy 762 m
Mostly cloudy 1372 m
Overcast 1829 m
2019/01/19 03:56 KNUW 190356Z 12015KT 10SM -RA SCT025 BKN045 OVC060 09/06 A2983 RMK AO2 PRESFR SLP100 P0006 T00890056 $
 
CWEZ - Saturna Isl (map, British Columbia, Canada
Distance from station: NNE 40km
Updated: 01/18/2019 8:00pm

 Wind from E
Wind: E 33 km/h
2019/01/19 04:00 CWEZ 190400Z AUTO 10018KT RMK AO1 PK WND 12025/0300 56038
CYCD - Nanaimo Airport, British Columbia, Canada
Distance from station: NW 80km
Updated: 01/18/2019 8:27pm
Rain, Mist, Overcast
Rain, Mist, Overcast
 Wind from E
Wind: E 9 km/h, Gust: 28 km/h
Temperature: 7°C
Wind Chill: 6°C
Dew Point: 6°C
Humidity: 93%
Barometer: 1008.5 hPa
Summary: Rain, Mist
Clouds: Overcast
Visibility: 8 km
Cloud details: Overcast 152 m
2019/01/19 04:27 CYCD 190427Z 10005G15KT 070V190 5SM RA BR OVC005 07/06 A2978 RMK SF8 SLP086
 
CWVF - Sand Heads (ls), British Columbia, Canada
Distance from station: N 72km
Updated: 01/18/2019 8:00pm

 Wind from E
Wind: E 43 km/h, Gust: 54 km/h
Temperature: 7°C
Wind Chill: 2°C
Dew Point: 6°C
Humidity: 93%
2019/01/19 04:00 CWVF 190400Z AUTO 09023G29KT 07/06 RMK AO1 PK WND 10029/0355 T00740063
CWQK - Race Rocks Autob, British Columbia, Canada
Distance from station: SW 26km
Updated: 01/18/2019 8:00pm

 Wind from ESE
Wind: ESE 56 km/h, Gust: 67 km/h
Temperature: 8°C
Wind Chill: 2°C
Dew Point: 4°C
Humidity: 76%
2019/01/19 04:00 CWQK 190400Z AUTO 12030G36KT 08/04 RMK AO1 PK WND 11043/0313 SLP052 T00820044 56043
 
CWSP - Sheringham Autob, British Columbia, Canada
Distance from station: W 49km
Updated: 01/18/2019 8:00pm

 Wind from E
Wind: E 24 km/h, Gust: 50 km/h
Temperature: 8°C
Wind Chill: 4°C
Dew Point: 5°C
Humidity: 82%
2019/01/19 04:00 CWSP 190400Z AUTO 08013G27KT 08/05 RMK AO1 4PAST HR 6035 PK WND 09027/0359 SLP063 P0002 T00770052 50010